Time;durP1;ratioP1;P1;durP2;ratioP2;P2;SDS_P1;SDS_P2;PMS_P1;PMS_P2;Temp;Humidity;BMP_temperature;BMP_pressure;BME280_temperature;BME280_humidity;BME280_pressure;Samples;Min_cycle;Max_cycle;Signal;HPM_P1;HPM_P2
2022/03/09 00:01:27;;;;;;;13.80;4.37;;;-2.90;81.90;;;;;;5032856;28;20816;-64
2022/03/09 00:03:53;;;;;;;11.13;4.70;;;-2.90;81.90;;;;;;5037523;28;20424;-64
2022/03/09 00:06:18;;;;;;;9.13;4.93;;;-2.90;81.80;;;;;;5037905;28;20432;-64
2022/03/09 00:08:44;;;;;;;11.40;4.20;;;-2.90;81.20;;;;;;5040428;28;20455;-64
2022/03/09 00:11:10;;;;;;;11.10;4.33;;;-3.00;81.30;;;;;;5036086;28;20279;-62
2022/03/09 00:13:36;;;;;;;11.50;4.50;;;-3.00;81.90;;;;;;5036420;28;20308;-64
2022/03/09 00:16:01;;;;;;;13.33;4.80;;;-3.10;82.20;;;;;;5036463;28;20468;-64
2022/03/09 00:18:27;;;;;;;7.70;3.90;;;-3.10;83.20;;;;;;5039455;28;20440;-66
2022/03/09 00:20:53;;;;;;;9.30;3.97;;;-3.10;83.00;;;;;;5015896;28;20209;-63
2022/03/09 00:23:19;;;;;;;9.07;3.60;;;-3.10;82.80;;;;;;5036569;28;20504;-63
2022/03/09 00:25:44;;;;;;;9.00;3.97;;;-3.10;83.20;;;;;;5040661;28;20190;-65
2022/03/09 00:28:10;;;;;;;10.17;4.17;;;-3.10;83.00;;;;;;5046464;28;20206;-64
2022/03/09 00:30:36;;;;;;;10.50;3.73;;;-3.10;82.60;;;;;;5045104;28;20185;-65
2022/03/09 00:33:01;;;;;;;9.53;4.47;;;-3.10;82.80;;;;;;5046098;28;20190;-64
2022/03/09 00:35:27;;;;;;;8.03;3.80;;;-3.10;82.80;;;;;;5020974;28;20242;-64
2022/03/09 00:37:53;;;;;;;7.60;3.30;;;-3.10;82.70;;;;;;5033969;28;20208;-62
2022/03/09 00:40:18;;;;;;;9.80;3.87;;;-3.10;82.90;;;;;;5041365;28;20590;-64
2022/03/09 00:42:44;;;;;;;10.00;3.07;;;-3.20;83.00;;;;;;5044221;28;20178;-65
2022/03/09 00:45:10;;;;;;;10.00;4.10;;;-3.10;83.10;;;;;;5042196;28;20201;-62
2022/03/09 00:47:36;;;;;;;10.10;3.93;;;-3.20;82.70;;;;;;5043812;28;20232;-64
2022/03/09 00:50:03;;;;;;;9.33;3.83;;;-3.20;83.00;;;;;;5038252;28;20487;-63
2022/03/09 00:52:30;;;;;;;18.10;4.60;;;-3.30;82.90;;;;;;5043235;28;20922;-64
2022/03/09 00:54:56;;;;;;;10.90;3.93;;;-3.40;83.20;;;;;;5018711;28;20555;-64
2022/03/09 00:57:21;;;;;;;10.97;4.93;;;-3.50;83.60;;;;;;5043676;28;20488;-64
2022/03/09 00:59:47;;;;;;;9.70;3.90;;;-3.50;84.40;;;;;;5036158;28;20688;-64
2022/03/09 01:02:13;;;;;;;8.13;3.10;;;-3.60;84.30;;;;;;5033782;28;20953;-62
2022/03/09 01:04:38;;;;;;;8.43;3.53;;;-3.60;85.20;;;;;;5036278;28;20736;-63
2022/03/09 01:07:04;;;;;;;5.83;2.97;;;-3.50;85.20;;;;;;5021257;28;20652;-65
2022/03/09 01:09:31;;;;;;;4.83;3.07;;;-3.50;85.00;;;;;;5034472;28;20614;-64
2022/03/09 01:11:57;;;;;;;6.47;3.20;;;-3.50;84.70;;;;;;5042901;28;20724;-64
2022/03/09 01:14:23;;;;;;;8.97;4.50;;;-3.50;85.00;;;;;;5040311;28;20475;-63
2022/03/09 01:16:48;;;;;;;9.07;4.00;;;-3.40;85.20;;;;;;5044351;28;20773;-62
2022/03/09 01:19:14;;;;;;;8.17;3.93;;;-3.40;84.70;;;;;;5044893;28;20455;-64
2022/03/09 01:21:40;;;;;;;9.33;3.77;;;-3.40;84.80;;;;;;5040705;28;20186;-65
2022/03/09 01:24:06;;;;;;;8.60;3.90;;;-3.30;84.50;;;;;;5044583;28;20200;-64
2022/03/09 01:26:32;;;;;;;7.33;3.70;;;-3.40;84.30;;;;;;5042532;28;20210;-66
2022/03/09 01:28:58;;;;;;;8.03;3.90;;;-3.40;84.80;;;;;;5042175;28;20594;-66
2022/03/09 01:31:24;;;;;;;9.90;3.57;;;-3.50;84.70;;;;;;5040692;28;21050;-64
2022/03/09 01:33:50;;;;;;;6.70;3.63;;;-3.50;84.40;;;;;;5041621;28;20202;-63
2022/03/09 01:36:16;;;;;;;7.97;3.57;;;-3.60;84.70;;;;;;5041112;28;20264;-63
2022/03/09 01:38:41;;;;;;;7.37;2.43;;;-3.60;85.00;;;;;;5033398;28;21025;-63
2022/03/09 01:41:07;;;;;;;15.93;3.13;;;-3.50;85.00;;;;;;5040438;28;20190;-63
2022/03/09 01:43:33;;;;;;;9.47;3.83;;;-3.60;84.80;;;;;;5038563;28;20459;-63
2022/03/09 01:45:58;;;;;;;7.77;3.90;;;-3.60;85.00;;;;;;5039899;28;20196;-64
2022/03/09 01:48:24;;;;;;;7.33;3.73;;;-3.70;85.00;;;;;;5036567;28;20209;-64
2022/03/09 01:50:50;;;;;;;9.70;4.40;;;-3.80;85.30;;;;;;5038213;28;20208;-63
2022/03/09 01:53:18;;;;;;;10.00;4.07;;;-3.80;85.90;;;;;;5036466;28;20225;-65
2022/03/09 01:55:45;;;;;;;9.53;3.53;;;-3.80;86.20;;;;;;5038592;28;20182;-64
2022/03/09 01:58:10;;;;;;;5.13;3.03;;;-3.80;85.50;;;;;;5033988;28;20432;-63
2022/03/09 02:00:36;;;;;;;9.17;4.60;;;-3.80;85.50;;;;;;5031333;28;20479;-64
2022/03/09 02:03:02;;;;;;;6.93;2.87;;;-3.80;85.60;;;;;;5031166;28;20189;-64
2022/03/09 02:05:28;;;;;;;5.77;3.40;;;-3.90;86.00;;;;;;5044518;28;20188;-64
2022/03/09 02:10:39;;;;;;;4.93;3.10;;;-3.90;86.10;;;;;;5043713;28;20192;-65
2022/03/09 02:13:05;;;;;;;8.77;4.30;;;-4.00;86.10;;;;;;5044118;28;20945;-64
2022/03/09 02:15:30;;;;;;;8.40;4.00;;;-4.00;86.20;;;;;;5043261;28;20421;-64
2022/03/09 02:17:59;;;;;;;6.30;3.47;;;-4.00;86.90;;;;;;5044159;28;20206;-65
2022/03/09 02:20:25;;;;;;;13.63;4.13;;;-4.00;86.70;;;;;;5020643;28;20182;-63
2022/03/09 02:22:53;;;;;;;12.93;3.70;;;-4.00;86.40;;;;;;5028058;28;20425;-64
2022/03/09 02:25:19;;;;;;;14.00;4.20;;;-4.00;86.10;;;;;;5038120;28;20429;-64
2022/03/09 02:27:45;;;;;;;9.20;3.47;;;-4.10;86.30;;;;;;5037930;28;20451;-64
2022/03/09 02:30:13;;;;;;;7.10;3.20;;;-4.10;87.10;;;;;;5035356;28;20467;-65
2022/03/09 02:32:41;;;;;;;6.13;3.20;;;-4.10;87.00;;;;;;5041801;28;20420;-63
2022/03/09 02:35:08;;;;;;;12.70;4.27;;;-4.10;86.80;;;;;;5036896;28;21038;-65
2022/03/09 02:37:34;;;;;;;16.27;3.70;;;-4.10;87.30;;;;;;5031605;28;20461;-62
2022/03/09 02:39:59;;;;;;;8.83;3.70;;;-4.10;87.80;;;;;;5031803;28;20417;-64
2022/03/09 02:42:25;;;;;;;5.27;3.40;;;-4.10;88.00;;;;;;5039739;28;20189;-64
2022/03/09 02:44:51;;;;;;;6.50;3.30;;;-4.10;87.90;;;;;;5035261;28;20209;-64
2022/03/09 02:47:16;;;;;;;6.77;3.00;;;-4.10;88.30;;;;;;5039326;28;20843;-64
2022/03/09 02:49:43;;;;;;;10.07;5.07;;;-4.10;88.40;;;;;;5032247;28;20269;-63
2022/03/09 02:52:08;;;;;;;7.97;3.37;;;-4.10;88.00;;;;;;5033946;28;20193;-64
2022/03/09 02:54:34;;;;;;;7.83;3.33;;;-4.10;87.80;;;;;;5032839;28;20468;-63
2022/03/09 02:57:00;;;;;;;9.27;4.03;;;-4.10;87.90;;;;;;5036382;28;20178;-65
2022/03/09 02:59:25;;;;;;;6.60;3.20;;;-4.20;88.30;;;;;;5035382;28;20669;-65
2022/03/09 03:01:51;;;;;;;7.40;4.30;;;-4.30;88.40;;;;;;5031877;28;20189;-64
2022/03/09 03:04:18;;;;;;;10.70;4.30;;;-4.30;88.80;;;;;;5041264;28;20229;-64
2022/03/09 03:06:43;;;;;;;10.77;4.53;;;-4.30;88.90;;;;;;5025266;28;20220;-64
2022/03/09 03:09:09;;;;;;;9.57;3.90;;;-4.20;89.10;;;;;;5023283;28;20487;-64
2022/03/09 03:11:35;;;;;;;10.20;2.93;;;-4.20;89.00;;;;;;5043459;28;20185;-64
2022/03/09 03:14:00;;;;;;;9.07;3.53;;;-4.30;88.40;;;;;;5043877;28;20257;-64
2022/03/09 03:16:26;;;;;;;7.67;3.60;;;-4.30;88.40;;;;;;5045483;28;20630;-63
2022/03/09 03:18:51;;;;;;;7.70;3.47;;;-4.30;88.40;;;;;;5041654;28;20209;-63
2022/03/09 03:21:17;;;;;;;9.67;3.10;;;-4.40;88.40;;;;;;5040223;28;20217;-65
2022/03/09 03:23:43;;;;;;;9.03;3.40;;;-4.40;88.10;;;;;;5041107;28;20201;-65
2022/03/09 03:26:08;;;;;;;9.40;4.17;;;-4.50;87.90;;;;;;5043967;28;20193;-64
2022/03/09 03:28:35;;;;;;;8.60;4.10;;;-4.50;88.10;;;;;;5039013;28;20237;-64
2022/03/09 03:31:00;;;;;;;9.33;2.93;;;-4.40;88.50;;;;;;5039732;28;20190;-64
2022/03/09 03:33:26;;;;;;;7.00;3.30;;;-4.50;88.30;;;;;;5020274;28;21877;-64
2022/03/09 03:35:52;;;;;;;11.17;4.10;;;-4.50;88.40;;;;;;5042081;28;20309;-64
2022/03/09 03:38:18;;;;;;;10.13;3.50;;;-4.60;88.20;;;;;;5037556;28;20214;-64
2022/03/09 03:40:44;;;;;;;8.53;3.53;;;-4.60;89.40;;;;;;5015097;28;20810;-64
2022/03/09 03:43:10;;;;;;;6.53;3.30;;;-4.60;89.20;;;;;;5029313;28;20190;-64
2022/03/09 03:45:36;;;;;;;7.97;3.67;;;-4.50;89.60;;;;;;5040064;28;20926;-67
2022/03/09 03:48:01;;;;;;;7.63;3.73;;;-4.50;88.50;;;;;;5036748;28;20305;-64
2022/03/09 03:50:27;;;;;;;7.63;3.03;;;-4.50;88.80;;;;;;5036468;28;20680;-65
2022/03/09 03:52:53;;;;;;;6.67;3.60;;;-4.50;88.70;;;;;;5047526;28;20662;-64
2022/03/09 03:55:18;;;;;;;8.33;3.20;;;-4.50;88.60;;;;;;5047127;28;20214;-65
2022/03/09 03:57:44;;;;;;;6.17;2.93;;;-4.50;88.20;;;;;;5044483;28;20202;-65
2022/03/09 04:00:11;;;;;;;7.30;3.60;;;-4.60;87.80;;;;;;5044793;28;20740;-64
2022/03/09 04:02:37;;;;;;;10.30;3.57;;;-4.70;88.50;;;;;;5035849;28;20191;-64
2022/03/09 04:05:03;;;;;;;9.20;3.97;;;-4.70;89.00;;;;;;5045378;28;20439;-66
2022/03/09 04:07:28;;;;;;;8.50;3.23;;;-4.60;88.80;;;;;;5043242;28;20445;-65
2022/03/09 04:09:54;;;;;;;8.63;4.27;;;-4.60;89.00;;;;;;5044202;28;20566;-64
2022/03/09 04:12:20;;;;;;;7.73;3.40;;;-4.60;88.80;;;;;;5039206;28;20190;-65
2022/03/09 04:14:46;;;;;;;12.73;4.80;;;-4.60;88.40;;;;;;5044983;28;20954;-65
2022/03/09 04:17:11;;;;;;;13.40;4.07;;;-4.70;88.20;;;;;;5041139;28;20958;-64
2022/03/09 04:19:37;;;;;;;11.53;4.43;;;-4.70;88.80;;;;;;5043151;28;20190;-63
2022/03/09 04:22:03;;;;;;;8.40;3.47;;;-4.70;89.50;;;;;;5033309;28;20190;-63
2022/03/09 04:24:29;;;;;;;11.50;4.10;;;-4.70;89.70;;;;;;5043867;28;20193;-67
2022/03/09 04:26:54;;;;;;;17.63;4.20;;;-4.70;89.50;;;;;;5039292;28;20939;-66
2022/03/09 04:29:20;;;;;;;8.43;3.70;;;-4.70;89.10;;;;;;5037939;28;20668;-65
2022/03/09 04:31:45;;;;;;;8.90;3.70;;;-4.70;89.00;;;;;;5034693;28;20321;-65
2022/03/09 04:34:11;;;;;;;9.03;4.03;;;-4.70;88.40;;;;;;5040917;28;20224;-65
2022/03/09 04:36:37;;;;;;;12.63;3.83;;;-4.60;88.70;;;;;;5035267;28;20191;-64
2022/03/09 04:39:04;;;;;;;6.83;3.60;;;-4.60;88.20;;;;;;5034989;28;20518;-64
2022/03/09 04:41:29;;;;;;;10.07;4.33;;;-4.80;87.60;;;;;;5016289;28;20205;-64
2022/03/09 04:43:55;;;;;;;9.37;4.37;;;-4.90;88.10;;;;;;5037876;28;20435;-65
2022/03/09 04:46:21;;;;;;;10.30;4.80;;;-5.00;88.90;;;;;;5040016;28;20272;-65
2022/03/09 04:48:48;;;;;;;8.80;4.40;;;-5.00;89.80;;;;;;5046419;28;20221;-65
2022/03/09 04:51:15;;;;;;;13.30;3.33;;;-5.00;90.10;;;;;;5044472;28;20202;-65
2022/03/09 04:53:40;;;;;;;7.40;3.07;;;-5.00;90.00;;;;;;5045959;28;20464;-64
2022/03/09 04:56:06;;;;;;;2.07;0.80;;;-5.00;90.10;;;;;;5044740;28;20487;-65
2022/03/09 04:58:32;;;;;;;9.87;3.90;;;-5.00;89.80;;;;;;5042541;28;20395;-65
2022/03/09 05:00:58;;;;;;;1.70;0.50;;;-5.00;90.20;;;;;;5042710;28;20213;-64
2022/03/09 05:03:24;;;;;;;8.73;3.80;;;-5.00;90.00;;;;;;5023244;28;20435;-65
2022/03/09 05:05:50;;;;;;;1.20;0.50;;;-5.00;89.80;;;;;;5040827;28;20206;-65
2022/03/09 05:08:15;;;;;;;34.17;11.07;;;-5.00;90.30;;;;;;5042994;28;20444;-65
2022/03/09 05:10:41;;;;;;;13.00;6.77;;;-5.00;90.00;;;;;;5039986;28;20187;-65
2022/03/09 05:13:07;;;;;;;2.50;1.10;;;-5.00;90.40;;;;;;5039748;28;20272;-64
2022/03/09 05:15:33;;;;;;;20.53;7.60;;;-5.00;90.20;;;;;;5039860;28;20226;-64
2022/03/09 05:17:58;;;;;;;1.10;0.60;;;-5.00;90.00;;;;;;5042671;28;20210;-64
2022/03/09 05:20:24;;;;;;;3.40;1.57;;;-5.10;89.70;;;;;;5034941;28;20421;-65
2022/03/09 05:22:51;;;;;;;14.60;5.80;;;-5.20;90.10;;;;;;5034205;28;20243;-65
2022/03/09 05:25:17;;;;;;;11.47;5.20;;;-5.30;90.70;;;;;;5036941;28;20539;-62
2022/03/09 05:27:43;;;;;;;1.30;0.60;;;-5.30;90.80;;;;;;5040060;28;21249;-65
2022/03/09 05:30:09;;;;;;;2.47;0.60;;;-5.40;90.60;;;;;;5031534;28;21100;-63
2022/03/09 05:32:36;;;;;;;15.67;6.23;;;-5.30;90.80;;;;;;5039001;28;20185;-64
2022/03/09 05:35:03;;;;;;;1.87;1.00;;;-5.30;91.00;;;;;;5035579;28;20628;-64
2022/03/09 05:37:34;;;;;;;12.60;4.20;;;-5.20;90.80;;;;;;5037149;28;20555;-64
2022/03/09 05:39:59;;;;;;;2.40;1.17;;;-5.10;90.80;;;;;;5034065;28;20425;-64
2022/03/09 05:42:25;;;;;;;12.07;4.53;;;-5.00;90.60;;;;;;5036305;28;20509;-65
2022/03/09 05:44:51;;;;;;;11.03;4.57;;;-5.00;90.30;;;;;;5044429;28;20328;-65
2022/03/09 05:47:16;;;;;;;11.90;5.10;;;-5.10;90.30;;;;;;5045084;28;20213;-64
2022/03/09 05:49:42;;;;;;;5.83;2.60;;;-5.10;90.40;;;;;;5041236;28;20662;-63
2022/03/09 05:52:07;;;;;;;9.57;4.27;;;-5.10;90.50;;;;;;5037894;28;20216;-64
2022/03/09 05:54:33;;;;;;;2.30;0.50;;;-5.00;90.70;;;;;;5043338;28;20225;-64
2022/03/09 05:56:59;;;;;;;12.10;4.47;;;-5.00;90.50;;;;;;5043745;28;20182;-64
2022/03/09 05:59:24;;;;;;;11.07;5.00;;;-5.00;90.60;;;;;;5037500;28;20197;-64
2022/03/09 06:01:50;;;;;;;1.20;0.70;;;-5.10;90.40;;;;;;5038997;28;20186;-63
2022/03/09 06:04:15;;;;;;;8.40;4.10;;;-5.20;90.60;;;;;;5036799;28;20190;-64
2022/03/09 06:06:41;;;;;;;13.93;4.30;;;-5.30;90.70;;;;;;5042124;28;20209;-64
2022/03/09 06:09:07;;;;;;;10.47;4.63;;;-5.30;90.90;;;;;;5022712;28;20293;-63
2022/03/09 06:11:32;;;;;;;11.60;4.87;;;-5.30;90.90;;;;;;5031778;28;20195;-65
2022/03/09 06:13:58;;;;;;;13.10;4.90;;;-5.20;90.70;;;;;;5027937;28;20213;-62
2022/03/09 06:16:23;;;;;;;12.50;5.30;;;-5.20;90.70;;;;;;5028515;28;20234;-63
2022/03/09 06:18:49;;;;;;;1.20;0.60;;;-5.10;90.90;;;;;;5038457;28;20209;-65
2022/03/09 06:21:15;;;;;;;13.07;5.47;;;-5.10;90.60;;;;;;5028622;28;20187;-64
2022/03/09 06:23:41;;;;;;;18.10;5.47;;;-5.00;90.70;;;;;;5028070;28;20702;-63
2022/03/09 06:26:07;;;;;;;11.63;5.70;;;-5.00;90.60;;;;;;5028982;28;20197;-64
2022/03/09 06:28:33;;;;;;;13.97;6.20;;;-5.10;90.40;;;;;;5024280;28;20449;-64
2022/03/09 06:30:59;;;;;;;16.57;5.00;;;-5.10;90.50;;;;;;5025422;28;21365;-64
2022/03/09 06:33:25;;;;;;;8.57;4.37;;;-5.10;90.70;;;;;;5025310;28;20277;-65
2022/03/09 06:35:50;;;;;;;5.97;2.27;;;-5.10;91.00;;;;;;5029947;28;20190;-64
2022/03/09 06:38:16;;;;;;;16.00;5.23;;;-5.00;91.30;;;;;;5021778;28;20492;-64
2022/03/09 06:40:43;;;;;;;1.30;0.60;;;-4.90;91.30;;;;;;5006608;28;20190;-65
2022/03/09 06:43:09;;;;;;;17.60;6.80;;;-4.80;90.90;;;;;;5032792;28;20429;-63
2022/03/09 06:45:35;;;;;;;22.43;7.70;;;-4.70;90.90;;;;;;5032370;28;20504;-66
2022/03/09 06:48:01;;;;;;;1.30;0.60;;;-4.60;91.00;;;;;;5044560;28;20917;-65
2022/03/09 06:50:27;;;;;;;18.33;7.87;;;-4.50;90.80;;;;;;5042742;28;20433;-67
2022/03/09 06:52:53;;;;;;;19.63;7.70;;;-4.30;91.10;;;;;;5044485;28;20540;-65
2022/03/09 06:55:18;;;;;;;2.23;0.60;;;-4.20;91.10;;;;;;5045985;28;20468;-66
2022/03/09 06:57:44;;;;;;;33.77;7.27;;;-4.10;90.80;;;;;;5023257;28;20276;-64
2022/03/09 07:00:12;;;;;;;20.37;8.47;;;-4.00;90.70;;;;;;5035818;28;20206;-66
2022/03/09 07:02:38;;;;;;;22.17;9.27;;;-4.00;90.60;;;;;;5040128;28;20245;-65
2022/03/09 07:05:05;;;;;;;7.27;4.27;;;-3.80;91.00;;;;;;5043330;28;20447;-66
2022/03/09 07:07:32;;;;;;;21.53;7.07;;;-3.50;91.20;;;;;;5029865;28;20471;-64
2022/03/09 07:09:58;;;;;;;1.30;0.80;;;-3.10;90.30;;;;;;5035744;28;20538;-66
2022/03/09 07:12:24;;;;;;;15.30;5.90;;;-2.60;88.90;;;;;;5027842;28;20445;-65
2022/03/09 07:14:50;;;;;;;18.20;6.50;;;-2.30;87.60;;;;;;5040383;28;21288;-64
2022/03/09 07:17:16;;;;;;;14.33;5.90;;;-2.00;87.20;;;;;;5036508;28;20913;-65
2022/03/09 07:19:42;;;;;;;1.93;0.70;;;-1.70;86.90;;;;;;5024433;28;21189;-65
2022/03/09 07:22:08;;;;;;;25.93;9.07;;;-1.30;86.30;;;;;;5032910;28;20425;-65
2022/03/09 07:24:34;;;;;;;14.33;5.10;;;-1.00;84.50;;;;;;5031067;28;20305;-65
2022/03/09 07:27:00;;;;;;;17.40;6.00;;;-0.70;84.10;;;;;;5037907;28;20216;-64
2022/03/09 07:29:26;;;;;;;17.10;4.40;;;-0.40;83.10;;;;;;5037710;28;20531;-65
2022/03/09 07:31:52;;;;;;;18.10;6.17;;;0.00;81.60;;;;;;5044448;28;20915;-65
2022/03/09 07:34:19;;;;;;;9.20;4.47;;;0.20;80.40;;;;;;5018383;28;20273;-66
2022/03/09 07:36:45;;;;;;;19.33;7.00;;;0.40;81.20;;;;;;5034277;28;20441;-66
2022/03/09 07:39:11;;;;;;;10.60;4.40;;;0.70;81.20;;;;;;5029036;28;20472;-64
2022/03/09 07:41:36;;;;;;;18.30;6.97;;;1.00;78.70;;;;;;5033991;28;20182;-65
2022/03/09 07:44:02;;;;;;;12.50;5.90;;;1.20;77.20;;;;;;5035545;28;20190;-65
2022/03/09 07:46:28;;;;;;;12.03;5.67;;;1.80;76.70;;;;;;5036484;28;20341;-65
2022/03/09 07:48:53;;;;;;;13.57;5.77;;;2.60;73.60;;;;;;5012936;28;20210;-64
2022/03/09 07:51:19;;;;;;;14.40;5.53;;;3.30;71.40;;;;;;5033608;28;20182;-66
2022/03/09 07:53:45;;;;;;;12.40;5.23;;;3.70;69.90;;;;;;5026079;28;20210;-63
2022/03/09 07:56:12;;;;;;;10.80;5.23;;;4.10;67.20;;;;;;5040361;28;20189;-65
2022/03/09 07:58:38;;;;;;;13.60;5.80;;;4.60;66.80;;;;;;5032552;28;20209;-65
2022/03/09 08:01:04;;;;;;;11.17;5.30;;;5.10;66.20;;;;;;5042032;28;20433;-64
2022/03/09 08:03:30;;;;;;;9.80;4.17;;;5.90;61.60;;;;;;5026488;28;20836;-68
2022/03/09 08:05:56;;;;;;;11.63;4.33;;;6.50;59.50;;;;;;5034276;28;20412;-65
2022/03/09 08:08:21;;;;;;;9.37;4.00;;;6.70;59.10;;;;;;5014223;28;20924;-65
2022/03/09 08:10:47;;;;;;;11.27;5.03;;;7.30;58.00;;;;;;5035740;28;20546;-65
2022/03/09 08:13:13;;;;;;;12.30;5.37;;;8.10;56.70;;;;;;5019085;28;20563;-65
2022/03/09 08:15:39;;;;;;;14.97;4.43;;;7.80;55.70;;;;;;5030552;28;20298;-66
2022/03/09 08:18:05;;;;;;;13.33;4.37;;;7.50;56.80;;;;;;5029206;28;20202;-65
2022/03/09 08:20:31;;;;;;;8.67;4.70;;;8.10;55.60;;;;;;5025553;28;20417;-67
2022/03/09 08:22:56;;;;;;;12.87;5.10;;;8.30;55.20;;;;;;5028184;28;20178;-65
2022/03/09 08:25:22;;;;;;;9.43;4.40;;;8.40;55.50;;;;;;5030104;28;20909;-67
2022/03/09 08:27:47;;;;;;;17.73;5.53;;;8.10;55.70;;;;;;5029723;28;20217;-67
2022/03/09 08:30:13;;;;;;;10.10;4.50;;;8.30;55.20;;;;;;5028263;28;20193;-69
2022/03/09 08:32:41;;;;;;;11.33;5.20;;;8.30;54.50;;;;;;5029006;28;20629;-68
2022/03/09 08:35:07;;;;;;;13.10;5.17;;;8.00;55.20;;;;;;5024174;28;20301;-67
2022/03/09 08:37:33;;;;;;;12.07;5.37;;;7.60;56.00;;;;;;5011786;28;20897;-66
2022/03/09 08:39:58;;;;;;;11.27;5.03;;;7.80;56.70;;;;;;5026502;28;20213;-65
2022/03/09 08:42:24;;;;;;;10.87;4.07;;;8.30;55.00;;;;;;5029127;28;20191;-67
2022/03/09 08:44:51;;;;;;;7.50;4.13;;;8.80;54.30;;;;;;5031576;28;20198;-67
2022/03/09 08:47:16;;;;;;;12.93;5.27;;;8.70;53.90;;;;;;5036446;28;20740;-67
2022/03/09 08:49:42;;;;;;;8.10;4.20;;;8.40;54.70;;;;;;5024416;28;20436;-65
2022/03/09 08:52:11;;;;;;;9.53;4.03;;;8.90;53.30;;;;;;5011889;28;20194;-65
2022/03/09 08:54:37;;;;;;;18.80;5.27;;;8.80;53.50;;;;;;5027395;28;20206;-67
2022/03/09 08:57:04;;;;;;;10.10;4.77;;;8.70;53.40;;;;;;5019042;28;20450;-67
2022/03/09 08:59:30;;;;;;;14.30;4.53;;;8.70;54.00;;;;;;5026113;28;20475;-66
2022/03/09 09:01:55;;;;;;;6.93;3.90;;;8.80;53.80;;;;;;5033701;28;20847;-66
2022/03/09 09:04:21;;;;;;;9.33;4.90;;;8.90;54.20;;;;;;5031618;28;20181;-67
2022/03/09 09:06:47;;;;;;;14.23;6.17;;;8.90;54.50;;;;;;5030050;28;20214;-67
2022/03/09 09:09:14;;;;;;;9.27;5.03;;;9.40;53.60;;;;;;5034356;28;20309;-65
2022/03/09 09:11:40;;;;;;;16.67;5.60;;;9.10;52.80;;;;;;5028300;28;20190;-67
2022/03/09 09:14:06;;;;;;;9.97;4.27;;;9.00;53.10;;;;;;5043109;28;20464;-67
2022/03/09 09:16:32;;;;;;;9.73;5.30;;;8.80;52.70;;;;;;5020255;28;20498;-65
2022/03/09 09:18:58;;;;;;;8.37;4.30;;;9.10;53.50;;;;;;5038754;28;20205;-65
2022/03/09 09:21:24;;;;;;;21.10;5.30;;;9.30;52.20;;;;;;5040733;28;20439;-67
2022/03/09 09:23:49;;;;;;;13.10;5.40;;;9.30;50.80;;;;;;5047481;28;20174;-67
2022/03/09 09:26:15;;;;;;;10.60;4.97;;;9.00;51.50;;;;;;5031668;28;20182;-66
2022/03/09 09:28:42;;;;;;;17.13;6.00;;;9.10;51.30;;;;;;5043164;28;20202;-67
2022/03/09 09:31:08;;;;;;;12.07;6.00;;;9.10;50.50;;;;;;5057002;28;20438;-67
2022/03/09 09:33:34;;;;;;;14.73;6.23;;;8.80;51.90;;;;;;5055567;28;20447;-67
2022/03/09 09:36:00;;;;;;;11.70;4.87;;;8.80;51.70;;;;;;5053427;28;20429;-67
2022/03/09 09:38:27;;;;;;;12.87;6.77;;;8.60;50.70;;;;;;5044863;28;20206;-66
2022/03/09 09:40:55;;;;;;;14.60;5.70;;;8.30;51.80;;;;;;5054576;28;20171;-67
2022/03/09 09:43:22;;;;;;;12.40;5.27;;;8.80;51.20;;;;;;5045776;28;20452;-66
2022/03/09 09:45:48;;;;;;;10.27;5.20;;;8.40;51.20;;;;;;5049226;28;20445;-68
2022/03/09 09:48:14;;;;;;;10.13;5.50;;;7.80;52.80;;;;;;5046900;28;21106;-64
2022/03/09 09:50:42;;;;;;;11.30;5.10;;;7.50;53.50;;;;;;5050567;28;20461;-66
2022/03/09 09:53:10;;;;;;;11.87;5.70;;;7.30;54.50;;;;;;5056668;28;20460;-64
2022/03/09 09:55:37;;;;;;;14.37;5.70;;;7.10;54.50;;;;;;5041393;28;20477;-64
2022/03/09 09:58:03;;;;;;;16.03;5.73;;;7.10;54.10;;;;;;5048408;28;20820;-63
2022/03/09 10:00:30;;;;;;;12.90;5.00;;;7.10;54.60;;;;;;5041911;28;20648;-67
2022/03/09 10:02:56;;;;;;;12.17;5.23;;;7.10;55.40;;;;;;5030883;28;20434;-66
2022/03/09 10:05:22;;;;;;;18.87;5.77;;;7.30;55.20;;;;;;5031695;28;20425;-67
2022/03/09 10:08:03;;;;;;;18.77;5.20;;;7.30;54.30;;;;;;5037739;28;20575;-67
2022/03/09 10:10:35;;;;;;;18.60;7.17;;;7.50;53.00;;;;;;5038301;28;20514;-64
2022/03/09 10:13:10;;;;;;;13.23;5.90;;;7.40;52.80;;;;;;5035719;28;20491;-64
2022/03/09 10:15:36;;;;;;;11.63;5.23;;;7.40;53.40;;;;;;5037836;28;20780;-63
2022/03/09 10:18:31;;;;;;;14.60;6.13;;;7.50;52.60;;;;;;5032627;28;20440;-65
2022/03/09 10:21:08;;;;;;;15.00;5.47;;;7.50;52.60;;;;;;5009342;28;20216;-64
2022/03/09 10:23:50;;;;;;;11.30;5.17;;;7.60;53.40;;;;;;5029382;28;20504;-66
2022/03/09 10:26:15;;;;;;;14.47;4.80;;;7.60;52.50;;;;;;5029482;28;20433;-64
2022/03/09 10:28:58;;;;;;;13.90;5.07;;;7.70;52.90;;;;;;5025969;28;20425;-63
2022/03/09 10:31:37;;;;;;;15.33;6.33;;;7.90;52.20;;;;;;5024631;28;20186;-65
2022/03/09 10:34:06;;;;;;;11.90;5.27;;;8.00;52.20;;;;;;5027414;28;20469;-65
2022/03/09 10:36:32;;;;;;;12.67;5.60;;;8.10;51.70;;;;;;5027138;28;20424;-66
2022/03/09 10:39:15;;;;;;;11.47;5.20;;;8.30;51.20;;;;;;5028763;28;22004;-66
2022/03/09 10:41:43;;;;;;;9.83;4.40;;;8.30;51.60;;;;;;5028233;28;20203;-64
2022/03/09 10:44:09;;;;;;;12.87;5.00;;;8.30;50.70;;;;;;5034354;28;20445;-65
2022/03/09 10:46:45;;;;;;;12.97;6.63;;;8.40;50.50;;;;;;5020567;28;20426;-66
2022/03/09 10:49:13;;;;;;;15.57;5.03;;;8.50;50.70;;;;;;5021539;28;20959;-66
2022/03/09 10:51:50;;;;;;;8.77;4.80;;;8.60;50.90;;;;;;5027821;28;20464;-66
2022/03/09 10:54:22;;;;;;;11.17;4.03;;;8.60;50.10;;;;;;5038675;28;20478;-65
2022/03/09 10:56:48;;;;;;;13.13;5.83;;;8.80;49.10;;;;;;5036738;28;20432;-66
2022/03/09 10:59:24;;;;;;;9.77;4.53;;;8.80;49.30;;;;;;5040194;28;21536;-67
2022/03/09 11:02:09;;;;;;;10.10;4.70;;;8.90;47.70;;;;;;5026136;28;20432;-67
2022/03/09 11:04:36;;;;;;;10.90;4.60;;;8.90;47.20;;;;;;5032758;28;20428;-65
2022/03/09 11:07:03;;;;;;;12.20;5.20;;;9.20;46.60;;;;;;5034873;28;20476;-66
2022/03/09 11:09:29;;;;;;;8.77;4.43;;;9.10;46.50;;;;;;5032989;28;20520;-66
2022/03/09 11:11:55;;;;;;;17.77;4.60;;;9.20;46.20;;;;;;5033320;28;20432;-65
2022/03/09 11:14:26;;;;;;;11.47;4.63;;;9.40;44.50;;;;;;5041022;28;20470;-65
2022/03/09 11:16:54;;;;;;;11.60;4.47;;;9.40;45.00;;;;;;5040982;28;20190;-65
2022/03/09 11:19:20;;;;;;;9.47;4.27;;;9.40;44.70;;;;;;5035336;28;20420;-64
2022/03/09 11:21:47;;;;;;;12.40;5.50;;;9.30;45.70;;;;;;5031492;28;20494;-64
2022/03/09 11:24:15;;;;;;;13.50;5.40;;;9.50;45.90;;;;;;5037370;28;20455;-64
2022/03/09 11:27:03;;;;;;;8.10;4.43;;;9.70;45.40;;;;;;5033748;28;20834;-65
2022/03/09 11:29:35;;;;;;;8.77;4.83;;;10.10;43.80;;;;;;5027577;28;20457;-64
2022/03/09 11:32:02;;;;;;;14.23;4.80;;;10.00;42.90;;;;;;5038904;28;20443;-66
2022/03/09 11:34:38;;;;;;;13.80;5.57;;;10.20;43.70;;;;;;5033410;28;20495;-66
2022/03/09 11:37:08;;;;;;;9.47;4.83;;;10.40;43.30;;;;;;5034833;28;20420;-65
2022/03/09 11:39:37;;;;;;;13.40;4.70;;;10.30;43.40;;;;;;5032011;28;20439;-65
2022/03/09 11:42:21;;;;;;;8.23;4.43;;;10.50;43.90;;;;;;5030462;28;21233;-66
2022/03/09 11:45:29;;;;;;;7.40;4.50;;;10.60;44.40;;;;;;5039857;28;20427;-64
2022/03/09 11:48:09;;;;;;;6.10;3.87;;;10.80;42.10;;;;;;5034382;28;20498;-65
2022/03/09 11:50:46;;;;;;;10.20;4.40;;;10.70;40.90;;;;;;5039855;28;20443;-66
2022/03/09 11:53:13;;;;;;;13.77;4.77;;;10.90;40.00;;;;;;5040506;28;20424;-66
2022/03/09 11:55:39;;;;;;;8.60;4.47;;;10.90;40.80;;;;;;5040504;28;20973;-67
2022/03/09 11:58:09;;;;;;;7.50;3.77;;;11.00;38.80;;;;;;5037416;28;20512;-65
2022/03/09 12:00:37;;;;;;;12.70;4.53;;;10.70;37.90;;;;;;5033692;28;20437;-66
2022/03/09 12:03:05;;;;;;;14.37;5.17;;;11.00;36.30;;;;;;5037330;28;20417;-67
2022/03/09 12:05:34;;;;;;;8.27;4.13;;;11.20;35.90;;;;;;5042716;28;20439;-65
2022/03/09 12:08:11;;;;;;;6.07;3.40;;;11.40;34.70;;;;;;5035512;28;20842;-66
2022/03/09 12:10:51;;;;;;;12.27;4.40;;;11.40;35.60;;;;;;5030949;28;20420;-66
2022/03/09 12:13:33;;;;;;;8.77;3.00;;;11.40;35.20;;;;;;5038242;28;20419;-67
2022/03/09 12:16:15;;;;;;;6.70;3.03;;;11.30;34.10;;;;;;5040637;28;20928;-67
2022/03/09 12:19:03;;;;;;;8.23;4.13;;;11.30;34.20;;;;;;5016593;28;20460;-66
2022/03/09 12:21:33;;;;;;;7.40;3.53;;;11.40;34.30;;;;;;5021445;28;20458;-67
2022/03/09 12:24:04;;;;;;;12.93;4.00;;;11.60;34.20;;;;;;5036592;28;20447;-66
2022/03/09 12:26:45;;;;;;;8.03;4.50;;;11.60;34.90;;;;;;5038210;28;20432;-66
2022/03/09 12:29:34;;;;;;;8.63;4.10;;;11.80;37.20;;;;;;5022336;28;20453;-66
2022/03/09 12:32:13;;;;;;;8.70;4.53;;;11.90;38.00;;;;;;5032255;28;20418;-66
2022/03/09 12:34:45;;;;;;;10.93;4.40;;;12.10;40.00;;;;;;5032220;28;20500;-67
2022/03/09 12:37:14;;;;;;;9.40;4.60;;;12.10;41.70;;;;;;5029440;28;20962;-68
2022/03/09 12:39:48;;;;;;;12.13;4.90;;;11.90;43.20;;;;;;5032350;28;20420;-67
2022/03/09 12:42:15;;;;;;;10.03;6.00;;;12.00;42.80;;;;;;5024465;28;20421;-65
2022/03/09 12:44:41;;;;;;;7.60;4.10;;;11.90;42.90;;;;;;5035592;28;20420;-67
2022/03/09 12:47:07;;;;;;;11.07;4.93;;;11.90;42.50;;;;;;5031447;28;20436;-66
2022/03/09 12:49:40;;;;;;;9.93;4.97;;;11.90;41.10;;;;;;5028303;28;20672;-66